createdAt,value
2022-11-29T00:00:49.988Z,101771.00
2022-11-29T00:03:16.923Z,101770.16
2022-11-29T00:05:43.604Z,101773.72
2022-11-29T00:08:10.417Z,101742.22
2022-11-29T00:10:38.015Z,101764.38
2022-11-29T00:13:05.315Z,101768.06
2022-11-29T00:15:36.032Z,101768.16
2022-11-29T00:18:03.423Z,101767.38
2022-11-29T00:20:30.178Z,101764.00
2022-11-29T00:22:56.975Z,101763.06
2022-11-29T00:25:24.236Z,101766.53
2022-11-29T00:27:51.785Z,101770.00
2022-11-29T00:30:20.251Z,101774.59
2022-11-29T00:32:47.230Z,101773.75
2022-11-29T00:35:14.045Z,101772.03
2022-11-29T00:37:40.664Z,101757.72
2022-11-29T00:40:08.306Z,101759.00
2022-11-29T00:42:34.900Z,101771.12
2022-11-29T00:45:01.580Z,101762.47
2022-11-29T00:47:28.480Z,101770.53
2022-11-29T00:49:55.089Z,101741.41
2022-11-29T00:52:21.672Z,101749.03
2022-11-29T00:54:48.587Z,101749.03
2022-11-29T00:57:15.189Z,101764.25
2022-11-29T00:59:41.785Z,101773.06
2022-11-29T01:02:08.789Z,101774.75
2022-11-29T01:04:35.458Z,101773.97
2022-11-29T01:07:02.194Z,101769.78
2022-11-29T01:09:29.214Z,101758.66
2022-11-29T01:11:55.897Z,101768.91
2022-11-29T01:14:22.572Z,101771.44
2022-11-29T01:16:49.494Z,101749.28
2022-11-29T01:19:16.197Z,101764.50
2022-11-29T01:21:42.833Z,101769.78
2022-11-29T01:24:09.687Z,101763.56
2022-11-29T01:26:36.299Z,101748.16
2022-11-29T01:29:02.921Z,101767.88
2022-11-29T01:31:32.951Z,101750.03
2022-11-29T01:34:01.972Z,101771.53
2022-11-29T01:36:29.137Z,101769.84
2022-11-29T01:38:58.218Z,101759.44
2022-11-29T01:41:28.138Z,101769.84
2022-11-29T01:44:05.659Z,101772.75
2022-11-29T01:46:37.555Z,101756.56
2022-11-29T01:49:10.472Z,101771.78
2022-11-29T01:51:40.499Z,101772.75
2022-11-29T01:54:09.569Z,101773.56
2022-11-29T01:56:37.859Z,101755.72
2022-11-29T01:59:09.324Z,101748.84
2022-11-29T02:01:36.947Z,101766.72
2022-11-29T02:04:05.345Z,101764.09
2022-11-29T02:06:32.606Z,101758.59
2022-11-29T02:08:59.263Z,101755.19
2022-11-29T02:11:58.038Z,101758.44
2022-11-29T02:14:44.908Z,101760.88
2022-11-29T02:17:47.242Z,101776.63
2022-11-29T02:20:29.478Z,101767.06
2022-11-29T02:23:46.136Z,101762.59
2022-11-29T02:26:25.227Z,101757.34
2022-11-29T02:29:36.457Z,101746.22
2022-11-29T02:32:41.262Z,101755.63
2022-11-29T02:35:10.530Z,101762.75
2022-11-29T02:38:08.727Z,101764.03
2022-11-29T02:40:53.880Z,101770.72
2022-11-29T02:43:31.200Z,101776.06
2022-11-29T02:46:18.145Z,101773.56
2022-11-29T02:49:03.566Z,101780.53
2022-11-29T02:51:46.844Z,101775.28
2022-11-29T02:54:28.470Z,101764.44
2022-11-29T02:57:14.345Z,101780.69
2022-11-29T03:00:01.475Z,101778.91
2022-11-29T03:02:46.730Z,101780.78
2022-11-29T03:05:24.716Z,101781.69
2022-11-29T03:07:59.403Z,101779.94
2022-11-29T03:10:59.457Z,101767.00
2022-11-29T03:13:52.498Z,101774.94
2022-11-29T03:16:27.100Z,101774.06
2022-11-29T03:19:16.046Z,101772.41
2022-11-29T03:21:51.571Z,101760.72
2022-11-29T03:24:49.448Z,101776.13
2022-11-29T03:27:25.163Z,101776.13
2022-11-29T03:30:01.580Z,101767.88
2022-11-29T03:32:40.133Z,101778.00
2022-11-29T03:35:09.203Z,101780.62
2022-11-29T03:38:01.649Z,101783.25
2022-11-29T03:40:49.992Z,101784.06
2022-11-29T03:43:23.648Z,101791.03
2022-11-29T03:46:16.079Z,101762.97
2022-11-29T03:48:48.503Z,101780.91
2022-11-29T03:51:54.634Z,101779.16
2022-11-29T03:54:27.945Z,101802.38
2022-11-29T03:56:54.994Z,101803.28
2022-11-29T03:59:51.677Z,101787.28
2022-11-29T04:02:57.590Z,101799.81
2022-11-29T04:06:02.654Z,101795.50
2022-11-29T04:08:54.491Z,101789.84
2022-11-29T04:11:54.681Z,101813.94
2022-11-29T04:14:33.462Z,101806.94
2022-11-29T04:17:19.137Z,101805.41
2022-11-29T04:20:25.545Z,101805.56
2022-11-29T04:23:30.090Z,101813.63
2022-11-29T04:26:15.118Z,101817.25
2022-11-29T04:28:53.959Z,101821.81
2022-11-29T04:31:45.734Z,101821.91
2022-11-29T04:34:31.167Z,101805.38
2022-11-29T04:37:46.343Z,101816.72
2022-11-29T04:40:27.521Z,101820.28
2022-11-29T04:42:58.580Z,101822.22
2022-11-29T04:45:43.870Z,101821.28
2022-11-29T04:48:38.575Z,101816.91
2022-11-29T04:51:42.697Z,101816.91
2022-11-29T04:54:47.302Z,101825.53
2022-11-29T04:57:47.465Z,101826.28
2022-11-29T05:00:19.306Z,101815.78
2022-11-29T05:03:01.953Z,101821.13
2022-11-29T05:05:43.359Z,101824.53
2022-11-29T05:08:29.075Z,101814.34
2022-11-29T05:11:25.038Z,101821.81
2022-11-29T05:14:30.729Z,101820.19
2022-11-29T05:17:12.417Z,101816.28
2022-11-29T05:20:08.245Z,101816.72
2022-11-29T05:22:51.626Z,101821.13
2022-11-29T05:25:31.084Z,101840.25
2022-11-29T05:28:10.639Z,101824.13
2022-11-29T05:31:03.325Z,101824.59
2022-11-29T05:33:32.670Z,101842.09
2022-11-29T05:36:29.617Z,101847.34
2022-11-29T05:39:20.542Z,101843.06
2022-11-29T05:42:30.539Z,101851.09
2022-11-29T05:45:04.872Z,101848.53
2022-11-29T05:47:49.994Z,101861.69
2022-11-29T05:51:03.856Z,101861.03
2022-11-29T05:53:42.554Z,101870.75
2022-11-29T05:57:03.519Z,101869.06
2022-11-29T05:59:31.278Z,101852.97
2022-11-29T06:02:25.141Z,101876.94
2022-11-29T06:05:26.034Z,101875.31
2022-11-29T06:08:25.669Z,101876.94
2022-11-29T06:11:01.444Z,101882.19
2022-11-29T06:13:57.879Z,101896.28
2022-11-29T06:16:30.958Z,101895.84
2022-11-29T06:19:39.341Z,101890.97
2022-11-29T06:22:30.794Z,101900.41
2022-11-29T06:25:20.352Z,101894.53
2022-11-29T06:28:16.907Z,101909.94
2022-11-29T06:31:05.109Z,101910.81
2022-11-29T07:54:24.446Z,101923.91
2022-11-29T07:56:51.411Z,101924.66
2022-11-29T08:41:24.525Z,101895.84
2022-11-29T08:43:51.645Z,101901.37
2022-11-29T08:46:18.963Z,101880.16
2022-11-29T08:48:47.282Z,101890.34
2022-11-29T08:51:15.509Z,101914.06
2022-11-29T08:53:42.236Z,101886.34
2022-11-29T08:56:41.660Z,101865.91
2022-11-29T08:58:56.388Z,101886.34
2022-11-29T09:01:23.232Z,101885.47
2022-11-29T09:04:10.565Z,101885.03
2022-11-29T09:06:40.721Z,101882.00
2022-11-29T09:09:07.766Z,101901.22
2022-11-29T09:11:35.262Z,101898.75
2022-11-29T09:14:06.979Z,101890.13
2022-11-29T09:16:36.776Z,101883.16
2022-11-29T09:19:05.333Z,101869.62
2022-11-29T09:21:33.686Z,101881.25
2022-11-29T09:24:01.818Z,101876.00
2022-11-29T09:26:32.510Z,101879.47
2022-11-29T09:29:01.438Z,101876.16
2022-11-29T09:31:29.971Z,101873.53
2022-11-29T09:33:57.678Z,101877.25
2022-11-29T09:36:28.458Z,101870.37
2022-11-29T09:38:57.204Z,101875.84
2022-11-29T09:41:40.266Z,101877.63
2022-11-29T09:44:20.639Z,101875.94
2022-11-29T09:47:05.714Z,101882.09
2022-11-29T09:49:55.220Z,101870.69
2022-11-29T09:52:31.618Z,101866.16
2022-11-29T09:55:21.104Z,101870.44
2022-11-29T09:57:49.424Z,101856.41
2022-11-29T10:00:20.007Z,101853.87
2022-11-29T10:03:04.061Z,101850.34
2022-11-29T10:05:35.450Z,101859.03
2022-11-29T10:08:25.593Z,101850.34
2022-11-29T10:11:02.126Z,101848.62
2022-11-29T10:13:34.784Z,101851.50
2022-11-29T10:16:14.360Z,101856.50
2022-11-29T10:18:54.401Z,101857.41
2022-11-29T10:21:27.701Z,101861.97
2022-11-29T13:38:52.149Z,101850.44
2022-11-29T13:41:41.000Z,101850.44
2022-11-29T13:44:46.126Z,101835.53
2022-11-29T13:47:15.685Z,101847.25
2022-11-29T13:50:02.738Z,101850.94
2022-11-29T13:52:40.499Z,101858.19
2022-11-29T13:55:14.448Z,101853.44
2022-11-29T13:58:15.646Z,101856.66
2022-11-29T14:00:43.908Z,101871.63
2022-11-29T14:03:23.255Z,101866.53
2022-11-29T14:05:54.166Z,101874.41
2022-11-29T14:08:48.153Z,101854.81
2022-11-29T14:11:25.029Z,101869.31
2022-11-29T14:13:59.063Z,101874.72
2022-11-29T14:16:32.270Z,101873.84
2022-11-29T14:19:10.406Z,101854.34
2022-11-29T14:21:58.706Z,101866.91
2022-11-29T16:14:52.500Z,101877.59
2022-11-29T16:17:21.046Z,101877.59
2022-11-29T16:19:48.113Z,101869.16
2022-11-29T16:22:21.548Z,101872.78
2022-11-29T16:25:05.688Z,101872.84
2022-11-29T16:27:34.057Z,101856.81
2022-11-29T16:30:02.352Z,101867.91
2022-11-29T16:32:41.274Z,101870.69
2022-11-29T16:35:26.237Z,101867.31
2022-11-29T16:37:53.712Z,101854.63
2022-11-29T16:40:27.297Z,101871.00
2022-11-29T16:43:03.095Z,101850.41
2022-11-29T16:45:41.837Z,101860.03
2022-11-29T16:48:25.528Z,101861.66
2022-11-29T16:51:23.766Z,101876.31
2022-11-29T16:53:52.080Z,101879.84
2022-11-29T16:56:28.101Z,101879.00
2022-11-29T16:59:25.348Z,101880.78
2022-11-29T17:01:49.903Z,101875.88
2022-11-29T17:04:23.533Z,101884.25
2022-11-29T17:06:53.820Z,101888.69
2022-11-29T17:09:27.074Z,101885.25
2022-11-29T17:11:55.579Z,101873.41
2022-11-29T17:14:22.735Z,101879.22
2022-11-29T17:16:49.779Z,101874.06
2022-11-29T17:19:17.585Z,101880.97
2022-11-29T17:21:44.888Z,101863.09
2022-11-29T17:24:14.357Z,101883.59
2022-11-29T17:26:43.120Z,101874.06
2022-11-29T17:29:14.564Z,101879.31
2022-11-29T17:31:44.179Z,101877.59
2022-11-29T17:34:11.436Z,101874.44
2022-11-29T17:36:38.364Z,101870.13
2022-11-29T17:39:05.488Z,101880.97
2022-11-29T17:41:33.060Z,101883.69
2022-11-29T17:44:00.487Z,101866.59
2022-11-29T17:46:32.243Z,101893.16
2022-11-29T17:49:01.341Z,101892.34
2022-11-29T17:51:51.332Z,101888.84
2022-11-29T17:54:15.325Z,101897.56
2022-11-29T17:56:42.252Z,101891.47
2022-11-29T17:59:08.913Z,101898.50
2022-11-29T18:01:36.373Z,101883.22
2022-11-29T18:04:08.891Z,101895.19
2022-11-29T18:06:50.298Z,101899.56
2022-11-29T18:09:19.408Z,101872.19
2022-11-29T18:11:49.107Z,101898.03
2022-11-29T18:14:22.942Z,101893.63
2022-11-29T18:16:50.583Z,101891.06
2022-11-29T18:19:20.349Z,101898.09
2022-11-29T18:21:49.022Z,101894.59
2022-11-29T18:24:16.192Z,101885.84
2022-11-29T18:26:43.255Z,101890.25
2022-11-29T18:29:10.244Z,101881.59
2022-11-29T18:31:40.781Z,101887.69
2022-11-29T18:34:09.813Z,101896.38
2022-11-29T18:36:40.459Z,101888.53
2022-11-29T18:39:09.948Z,101883.44
2022-11-29T18:41:37.911Z,101887.75
2022-11-29T18:44:07.384Z,101871.63
2022-11-29T18:46:37.098Z,101891.22
2022-11-29T18:49:06.758Z,101887.69
2022-11-29T18:51:34.465Z,101886.81
2022-11-29T18:54:02.018Z,101892.78
2022-11-29T18:56:31.236Z,101890.25
2022-11-29T18:59:00.364Z,101880.06
2022-11-29T19:01:30.013Z,101886.66
2022-11-29T19:03:59.043Z,101889.22
2022-11-29T19:06:39.411Z,101877.50
2022-11-29T19:09:11.604Z,101884.84
2022-11-29T19:11:38.776Z,101889.94
2022-11-29T19:14:11.346Z,101885.53
2022-11-29T19:16:44.543Z,101887.25
2022-11-29T19:19:12.058Z,101894.09
2022-11-29T19:21:40.152Z,101892.34
2022-11-29T19:24:13.261Z,101891.53
2022-11-29T19:26:40.751Z,101884.69
2022-11-29T19:29:07.589Z,101893.47
2022-11-29T19:31:34.376Z,101870.50
2022-11-29T19:34:01.654Z,101881.44
2022-11-29T19:36:30.642Z,101884.13
2022-11-29T19:39:00.044Z,101875.72
2022-11-29T19:41:29.798Z,101881.59
2022-11-29T19:43:58.258Z,101887.69
2022-11-29T19:46:27.937Z,101869.84
2022-11-29T19:48:59.913Z,101890.47
2022-11-29T19:51:28.660Z,101873.34
2022-11-29T19:54:00.984Z,101891.44
2022-11-29T19:56:28.371Z,101899.31
2022-11-29T19:58:55.466Z,101889.81
2022-11-29T20:01:25.352Z,101891.66
2022-11-29T20:03:52.865Z,101894.34
2022-11-29T20:06:20.225Z,101890.09
2022-11-29T20:08:46.978Z,101890.78
2022-11-29T20:11:16.329Z,101895.19
2022-11-29T20:13:44.458Z,101900.44
2022-11-29T20:16:14.679Z,101896.19
2022-11-29T20:18:50.134Z,101898.66
2022-11-29T20:21:21.321Z,101894.34
2022-11-29T20:23:48.651Z,101901.34
2022-11-29T20:26:19.599Z,101894.50
2022-11-29T20:28:47.466Z,101881.69
2022-11-29T20:31:17.943Z,101896.19
2022-11-29T20:33:46.546Z,101892.66
2022-11-29T20:36:25.349Z,101903.12
2022-11-29T20:39:03.960Z,101897.87
2022-11-29T20:41:55.750Z,101900.50
2022-11-29T20:44:37.762Z,101910.16
2022-11-29T20:47:17.151Z,101898.03
2022-11-29T20:49:44.875Z,101910.22
2022-11-29T20:52:28.456Z,101905.13
2022-11-29T20:54:55.380Z,101895.09
2022-11-29T20:57:22.261Z,101911.22
2022-11-29T20:59:48.907Z,101913.91
2022-11-29T21:02:15.895Z,101912.19
2022-11-29T21:04:42.599Z,101896.22
2022-11-29T21:07:09.209Z,101906.31
2022-11-29T21:09:36.269Z,101907.09
2022-11-29T21:12:03.263Z,101907.97
2022-11-29T21:14:30.135Z,101908.94
2022-11-29T21:16:57.391Z,101912.47
2022-11-29T21:19:25.806Z,101892.94
2022-11-29T21:22:14.176Z,101890.47
2022-11-29T21:25:02.717Z,101899.06
2022-11-29T21:27:32.939Z,101909.09
2022-11-29T21:30:03.308Z,101912.63
2022-11-29T21:32:30.617Z,101909.94
2022-11-29T21:34:57.918Z,101906.41
2022-11-29T21:37:27.656Z,101900.31
2022-11-29T21:39:55.234Z,101902.16
2022-11-29T21:42:22.018Z,101898.69
2022-11-29T21:44:49.191Z,101887.41
2022-11-29T21:47:15.941Z,101898.63
2022-11-29T21:49:42.671Z,101870.31
2022-11-29T21:52:09.596Z,101898.47
2022-11-29T21:54:37.033Z,101894.94
2022-11-29T21:57:04.287Z,101901.84
2022-11-29T21:59:31.252Z,101889.62
2022-11-29T22:01:57.946Z,101898.31
2022-11-29T22:04:25.343Z,101897.41
2022-11-29T22:06:52.117Z,101904.34
2022-11-29T22:09:18.750Z,101899.09
2022-11-29T22:11:45.716Z,101885.53
2022-11-29T22:14:18.734Z,101902.50
2022-11-29T22:16:54.049Z,101890.41
2022-11-29T22:19:32.532Z,101901.63
2022-11-29T22:22:05.394Z,101895.41
2022-11-29T22:24:36.704Z,101884.47
2022-11-29T22:27:04.126Z,101903.19
2022-11-29T22:29:30.945Z,101898.72
2022-11-29T22:31:59.340Z,101878.13
2022-11-29T22:34:27.029Z,101895.19
2022-11-29T22:36:54.155Z,101896.03
2022-11-29T22:39:22.754Z,101896.91
2022-11-29T22:41:54.168Z,101892.50
2022-11-29T22:44:21.868Z,101891.59
2022-11-29T22:46:48.824Z,101888.97
2022-11-29T22:49:15.913Z,101880.63
2022-11-29T22:51:42.629Z,101901.16
2022-11-29T22:54:11.693Z,101890.72
2022-11-29T22:56:40.855Z,101877.16
2022-11-29T22:59:07.761Z,101878.06
2022-11-29T23:01:36.591Z,101892.50
2022-11-29T23:04:07.248Z,101893.34
2022-11-29T23:06:40.395Z,101885.44
2022-11-29T23:09:16.567Z,101870.00
2022-11-29T23:11:44.809Z,101885.28
2022-11-29T23:14:12.323Z,101877.44
2022-11-29T23:16:39.148Z,101874.97
2022-11-29T23:19:05.893Z,101860.37
2022-11-29T23:21:38.951Z,101871.25
2022-11-29T23:24:06.600Z,101885.16
2022-11-29T23:26:40.188Z,101885.16
2022-11-29T23:29:18.739Z,101879.19
2022-11-29T23:31:46.873Z,101883.50
2022-11-29T23:34:14.200Z,101879.19
2022-11-29T23:36:41.532Z,101881.81
2022-11-29T23:39:08.513Z,101888.06
2022-11-29T23:41:36.651Z,101864.91
2022-11-29T23:44:04.870Z,101880.31
2022-11-29T23:46:32.276Z,101882.88
2022-11-29T23:48:58.873Z,101882.03
2022-11-29T23:51:25.524Z,101880.31
2022-11-29T23:53:53.550Z,101876.03
2022-11-29T23:56:21.736Z,101888.25
2022-11-29T23:58:48.634Z,101890.03
